Flight Track Log - Related Links

Times and Time Zones

All times are in EDT time to prevent confusion due to time zone crossing. See the DAL3970 flight status page for this flight to view local times or setup timezone preferences in your user account.


Time Position Orientation Groundspeed Altitude Reporting Facility
EDT Latitude Longitude Course Direction KTS MPH feet Rate Location/Type
Mon 10:39:50 AM 42.2028 -83.3553 183° South 154 177 1,400  Level Cleveland Center
Mon 10:40:26 AM 42.1753 -83.3572 183° South 184 212 2,500 1,909 Climbing Cleveland Center
Mon 10:41:18 AM 42.1397 -83.3536 176° South 184 212 4,200 2,361 Climbing Cleveland Center
Mon 10:41:27 AM 42.1194 -83.3492 171° South 218 251 4,900 1,452 Climbing Cleveland Center
Mon 10:42:20 AM 42.0975 -83.2897 116° Southeast 247 284 5,700 1,548 Climbing Cleveland Center
Mon 10:42:29 AM 42.0903 -83.2664 113° Southeast 287 330 6,500 3,097 Climbing Cleveland Center
Mon 10:43:22 AM 42.0925 -83.1742 88° East 291 335 8,900 2,727 Climbing Cleveland Center
Mon 10:43:24 AM 42.0933 -83.1711 70° East 287 330 9,000 1,839 Climbing Cleveland Center
Mon 10:44:24 AM 42.1278 -83.0753 64° Northeast 293 337 10,800 1,869 Climbing Cleveland Center
Mon 10:44:25 AM 42.1303 -83.0722 42° Northeast 314 361 10,900 1,935 Climbing Cleveland Center
Mon 10:45:26 AM 42.1778 -82.9736 57° Northeast 330 380 12,800 1,065 Climbing Cleveland Center
Mon 10:46:29 AM 42.2464 -82.8900 42° Northeast 349 402 13,100 1,632 Climbing Cleveland Center
Mon 10:47:31 AM 42.2869 -82.7439 69° East 349 402 16,200 2,129 Climbing Cleveland Center
Mon 10:48:33 AM 42.3228 -82.6194 69° East 357 411 17,500 968 Climbing Cleveland Center
Mon 10:49:35 AM 42.3608 -82.4831 69° East 384 442 18,200 919 Climbing Cleveland Center
Mon 10:50:37 AM 42.3642 -82.3278 88° East 416 479 19,400 1,306 Climbing Cleveland Center
Mon 10:51:39 AM 42.3581 -82.1722 93° East 416 479 20,900 1,403 Climbing Cleveland Center
Mon 10:52:41 AM 42.3503 -81.9931 93° East 416 479 22,300 1,113 Climbing Cleveland Center
Mon 10:53:43 AM 42.3431 -81.8319 93° East 420 483 23,200 774 Climbing Cleveland Center
Mon 10:54:45 AM 42.3347 -81.6653 94° East 433 498 23,900 677 Climbing Cleveland Center
Mon 10:55:47 AM 42.3261 -81.4939 94° East 445 512 24,600 1,065 Climbing Cleveland Center
Mon 10:56:49 AM 42.3186 -81.3250 93° East 447 514 26,100 1,161 Climbing Cleveland Center
Mon 10:57:51 AM 42.3103 -81.1603 94° East 441 507 27,000 435 Climbing Cleveland Center
Mon 10:58:53 AM 42.3011 -80.9897 94° East 446 513 27,000  Level Cleveland Center
Mon 10:59:56 AM 42.2897 -80.7803 94° East 473 544 27,000  Level Cleveland Center
Mon 11:00:58 AM 42.2811 -80.6017 94° East 472 543 27,000  Level Cleveland Center
Mon 11:02:00 AM 42.2733 -80.4183 93° East 480 552 27,000  Level Cleveland Center
Mon 11:03:02 AM 42.3083 -80.2494 74° East 464 534 27,000  Level Cleveland Center
Mon 11:04:04 AM 42.3439 -80.0833 74° East 460 529 27,000  Level Cleveland Center
Mon 11:05:05 AM 42.3786 -79.9211 74° East 454 522 27,000  Level Cleveland Center
Mon 11:06:07 AM 42.4131 -79.7594 74° East 449 517 27,000  Level Cleveland Center
Mon 11:07:09 AM 42.4533 -79.5639 74° East 450 518 27,000  Level Cleveland Center
Mon 11:08:11 AM 42.4842 -79.4153 74° East 447 514 27,000  Level Cleveland Center
Mon 11:09:13 AM 42.5167 -79.2531 75° East 448 516 27,000  Level Cleveland Center
Mon 11:10:15 AM 42.5494 -79.0917 75° East 447 514 27,000  Level Cleveland Center
Mon 11:11:17 AM 42.5875 -78.8969 75° East 446 513 27,000  Level Cleveland Center
Mon 11:12:18 AM 42.6208 -78.7358 74° East 445 512 27,000 -49 Level Cleveland Center
Mon 11:13:20 AM 42.6519 -78.5742 75° East 444 511 26,900 -532 Descending Cleveland Center
Mon 11:14:22 AM 42.6856 -78.4106 74° East 445 512 25,900 -968 Descending Cleveland Center
Mon 11:15:24 AM 42.7197 -78.2364 75° East 476 548 24,900 -1,171 Descending Cleveland Center
Mon 11:16:25 AM 42.7525 -78.0642 75° East 470 541 23,500 -1,512 Descending Cleveland Center
Mon 11:17:27 AM 42.7844 -77.8972 75° East 457 526 21,800 -2,081 Descending Cleveland Center
Mon 11:18:29 AM 42.8147 -77.7458 75° East 414 476 19,200 -2,341 Descending Cleveland Center
Mon 11:19:30 AM 42.8406 -77.6036 76° East 385 443 17,000 -2,341 Descending Cleveland Center
Mon 11:20:32 AM 42.8644 -77.4708 76° East 362 417 14,400 -2,516 Descending Cleveland Center
Mon 11:21:34 AM 42.8936 -77.3153 76° East 354 407 11,800 -1,610 Descending Cleveland Center
Mon 11:22:35 AM 42.9161 -77.1892 76° East 345 397 11,100 -390 Descending Cleveland Center
Mon 11:23:37 AM 42.9392 -77.0700 75° East 330 380 11,000  Descending Cleveland Center
Mon 11:24:39 AM 42.9608 -76.9500 76° East 328 377 11,100 49 Climbing Cleveland Center
Mon 11:25:40 AM 42.9819 -76.8311 76° East 324 373 11,100 -439 Level Cleveland Center
Mon 11:26:42 AM 43.0089 -76.7256 71° East 300 345 10,200 -1,317 Descending Cleveland Center
Mon 11:27:43 AM 43.0400 -76.6211 68° East 266 306 8,400 -1,636 Descending Cleveland Center
Mon 11:28:21 AM 43.0556 -76.5681 68° East 259 298 7,500 -1,467 Descending Boston Center
Mon 11:29:13 AM 43.0778 -76.4947 67° East 246 283 6,200 -1,377 Descending Boston Center
Mon 11:29:22 AM 43.0811 -76.4814 71° East 250 288 6,100 -200 Descending Boston Center
Mon 11:30:13 AM 43.1036 -76.4067 68° East 246 283 6,000 -100 Descending Boston Center
Mon 11:30:22 AM 43.1061 -76.3958 72° East 247 284 6,000 -353 Level Boston Center
Mon 11:31:21 AM 43.1308 -76.3100 68° East 238 274 5,600 -381 Descending Boston Center
Mon 11:31:25 AM 43.1308 -76.3114 270° West 244 281 5,600 -610 Level Boston Center
Mon 11:32:20 AM 43.1536 -76.2267 70° East 231 266 5,000 -590 Descending Boston Center
Mon 11:32:26 AM 43.1536 -76.2286 270° West 237 273 5,000  Level Boston Center
Mon 11:33:27 AM 43.1717 -76.1439 74° East 237 273 5,000 -496 Level Boston Center
Mon 11:34:27 AM 43.1758 -76.0617 86° East 226 260 4,000 -1,388 Descending Boston Center
Mon 11:35:28 AM 43.1842 -75.9706 83° East 214 246 2,200 -992 Descending Boston Center
Mon 11:36:28 AM 43.1567 -75.9181 126° Southeast 208 239 2,000 -190 Descending Boston Center
Mon 11:36:31 AM 43.1647 -75.9172 North 218 251 2,000 94 Level Boston Center
Mon 11:37:32 AM 43.1178 -75.9392 199° South 200 230 2,100 -53 Climbing Boston Center
Mon 11:38:24 AM 43.1103 -76.0028 261° West 143 165 1,900 -295 Descending Boston Center
Mon 11:38:33 AM 43.1119 -76.0089 290° West 167 192 1,800 -778 Descending Boston Center
Mon 11:39:18 AM 43.1089 -76.0492 264° West 128 147 1,200 -787 Descending Boston Center
Mon 11:39:34 AM 43.1108 -76.0578 287° West 145 167 1,000 -468 Descending Boston Center
Mon 11:40:35 AM 43.1094 -76.1006 267° West 138 159 600 -393 Descending Boston Center

Login

Don't have an account? Register now (free) for customized features, flight alerts, and more!